createdAt,value
2019-04-28T00:00:41.130Z,10.40
2019-04-28T00:05:42.585Z,10.40
2019-04-28T00:10:43.774Z,10.40
2019-04-28T00:15:45.058Z,10.40
2019-04-28T00:20:46.296Z,10.30
2019-04-28T00:25:47.693Z,10.30
2019-04-28T00:30:48.903Z,10.30
2019-04-28T00:35:51.566Z,10.30
2019-04-28T00:40:53.074Z,10.40
2019-04-28T00:45:54.289Z,10.40
2019-04-28T00:50:55.587Z,10.40
2019-04-28T00:55:56.942Z,10.20
2019-04-28T01:00:58.162Z,10.20
2019-04-28T01:05:59.466Z,10.30
2019-04-28T01:11:01.819Z,10.30
2019-04-28T01:16:03.253Z,10.10
2019-04-28T01:21:04.466Z,10.20
2019-04-28T01:26:05.759Z,10.10
2019-04-28T01:31:07.056Z,10.00
2019-04-28T01:36:10.272Z,10.10
2019-04-28T01:41:11.311Z,10.10
2019-04-28T01:46:12.691Z,10.00
2019-04-28T01:51:13.903Z,10.00
2019-04-28T01:56:15.210Z,10.10
2019-04-28T02:01:16.606Z,10.00
2019-04-28T02:06:19.741Z,10.00
2019-04-28T02:11:21.008Z,10.00
2019-04-28T02:16:22.226Z,10.00
2019-04-28T02:21:23.590Z,10.10
2019-04-28T02:26:24.940Z,10.10
2019-04-28T02:31:26.289Z,9.90
2019-04-28T02:36:27.491Z,9.90
2019-04-28T02:41:30.659Z,9.70
2019-04-28T02:46:31.804Z,9.60
2019-04-28T02:51:33.180Z,9.60
2019-04-28T02:56:34.403Z,9.60
2019-04-28T03:01:35.711Z,9.50
2019-04-28T03:06:37.082Z,9.50
2019-04-28T03:11:42.763Z,9.50
2019-04-28T03:16:41.470Z,9.30
2019-04-28T03:21:43.160Z,9.40
2019-04-28T03:26:44.512Z,9.40
2019-04-28T03:32:10.153Z,9.40
2019-04-28T03:36:48.765Z,9.40
2019-04-28T03:41:50.324Z,9.40
2019-04-28T03:46:51.695Z,9.30
2019-04-28T03:51:52.917Z,9.30
2019-04-28T03:56:54.293Z,9.20
2019-04-28T04:01:59.782Z,9.10
2019-04-28T04:07:01.420Z,9.10
2019-04-28T04:12:03.642Z,9.10
2019-04-28T04:17:05.079Z,9.10
2019-04-28T04:22:06.287Z,9.00
2019-04-28T04:27:07.581Z,8.90
2019-04-28T04:32:15.861Z,8.80
2019-04-28T04:37:12.634Z,8.70
2019-04-28T04:42:14.210Z,8.70
2019-04-28T04:47:15.417Z,8.70
2019-04-28T04:52:16.720Z,8.90
2019-04-28T04:57:17.932Z,8.80
2019-04-28T05:02:29.597Z,8.70
2019-04-28T05:07:22.241Z,8.40
2019-04-28T05:12:23.463Z,8.40
2019-04-28T05:17:24.831Z,8.40
2019-04-28T05:22:26.052Z,8.30
2019-04-28T05:27:27.412Z,8.30
2019-04-28T05:32:41.613Z,8.40
2019-04-28T05:37:31.721Z,8.60
2019-04-28T05:42:33.108Z,8.80
2019-04-28T05:47:34.517Z,8.70
2019-04-28T05:52:35.804Z,8.70
2019-04-28T05:57:37.008Z,8.80
2019-04-28T06:02:39.683Z,8.80
2019-04-28T06:07:41.325Z,8.90
2019-04-28T06:12:42.532Z,8.80
2019-04-28T06:17:43.834Z,8.80
2019-04-28T06:22:45.042Z,8.70
2019-04-28T06:27:46.896Z,8.60
2019-04-28T06:32:48.188Z,8.60
2019-04-28T06:37:49.544Z,8.60
2019-04-28T06:42:50.915Z,8.70
2019-04-28T06:47:52.132Z,8.70
2019-04-28T06:52:53.488Z,8.90
2019-04-28T06:57:54.702Z,9.10
2019-04-28T07:02:55.993Z,8.90
2019-04-28T07:07:57.290Z,8.90
2019-04-28T07:12:58.499Z,9.00
2019-04-28T07:17:59.780Z,9.00
2019-04-28T07:23:01.323Z,9.10
2019-04-28T07:28:02.515Z,9.10
2019-04-28T07:33:04.133Z,9.00
2019-04-28T07:38:05.419Z,8.90
2019-04-28T07:43:06.634Z,9.10
2019-04-28T07:48:07.933Z,9.20
2019-04-28T07:53:09.141Z,9.20
2019-04-28T07:58:10.417Z,9.60
2019-04-28T08:03:11.618Z,9.60
2019-04-28T08:08:12.916Z,9.80
2019-04-28T08:13:14.121Z,9.90
2019-04-28T08:18:15.495Z,9.80
2019-04-28T08:23:16.789Z,9.90
2019-04-28T08:28:17.998Z,9.80
2019-04-28T08:33:19.365Z,10.10
2019-04-28T08:38:20.657Z,10.20
2019-04-28T08:43:21.893Z,10.10
2019-04-28T08:48:23.191Z,10.10
2019-04-28T08:53:24.497Z,10.20
2019-04-28T08:58:25.722Z,10.30
2019-04-28T09:03:27.050Z,10.50
2019-04-28T09:08:28.423Z,10.60
2019-04-28T09:13:29.733Z,10.50
2019-04-28T09:18:31.118Z,10.70
2019-04-28T09:23:32.410Z,10.50
2019-04-28T09:28:33.620Z,10.50
2019-04-28T09:33:35.012Z,10.40
2019-04-28T09:38:36.386Z,10.50
2019-04-28T09:43:37.731Z,10.60
2019-04-28T09:48:38.943Z,10.60
2019-04-28T09:53:40.259Z,10.70
2019-04-28T09:58:41.576Z,10.90
2019-04-28T10:03:42.865Z,11.20
2019-04-28T10:08:44.093Z,11.50
2019-04-28T10:13:45.416Z,11.60
2019-04-28T10:18:46.704Z,11.60
2019-04-28T10:23:47.939Z,11.20
2019-04-28T10:28:49.333Z,11.10
2019-04-28T10:33:50.732Z,11.40
2019-04-28T10:38:52.060Z,11.90
2019-04-28T10:43:53.395Z,12.20
2019-04-28T10:48:54.691Z,11.90
2019-04-28T10:53:55.998Z,11.40
2019-04-28T10:58:57.377Z,11.70
2019-04-28T11:03:58.757Z,12.10
2019-04-28T11:09:00.113Z,12.30
2019-04-28T11:14:01.413Z,12.20
2019-04-28T11:19:02.866Z,12.80
2019-04-28T11:24:04.159Z,12.80
2019-04-28T11:29:05.870Z,12.90
2019-04-28T11:34:07.179Z,12.50
2019-04-28T11:39:08.484Z,12.60
2019-04-28T11:44:09.776Z,12.70
2019-04-28T11:49:11.071Z,13.20
2019-04-28T11:54:12.430Z,13.20
2019-04-28T11:59:13.735Z,13.30
2019-04-28T12:04:15.097Z,13.10
2019-04-28T12:09:16.382Z,13.00
2019-04-28T12:14:17.697Z,12.90
2019-04-28T12:19:19.056Z,13.00
2019-04-28T12:24:20.373Z,13.30
2019-04-28T12:29:21.782Z,13.50
2019-04-28T12:34:23.417Z,13.60
2019-04-28T12:39:24.719Z,13.80
2019-04-28T12:44:26.078Z,14.00
2019-04-28T12:49:27.385Z,14.20
2019-04-28T12:54:28.749Z,14.00
2019-04-28T12:59:30.065Z,14.00
2019-04-28T13:04:31.435Z,14.00
2019-04-28T13:09:32.731Z,14.10
2019-04-28T13:14:34.040Z,14.10
2019-04-28T13:19:35.875Z,13.90
2019-04-28T13:24:37.198Z,13.90
2019-04-28T13:29:39.528Z,14.10
2019-04-28T13:34:40.864Z,14.20
2019-04-28T13:39:42.158Z,14.50
2019-04-28T13:44:43.511Z,15.10
2019-04-28T13:49:44.886Z,16.00
2019-04-28T13:54:46.263Z,17.30
2019-04-28T13:59:47.665Z,17.60
2019-04-28T14:04:48.994Z,17.20
2019-04-28T14:09:50.348Z,16.80
2019-04-28T14:14:51.693Z,18.00
2019-04-28T14:19:53.085Z,17.60
2019-04-28T14:24:54.802Z,17.50
2019-04-28T14:29:56.097Z,17.50
2019-04-28T14:34:57.512Z,17.40
2019-04-28T14:39:58.858Z,16.90
2019-04-28T14:45:00.224Z,16.60
2019-04-28T14:50:02.982Z,17.30
2019-04-28T14:55:04.531Z,18.00
2019-04-28T15:00:05.896Z,17.30
2019-04-28T15:05:07.228Z,16.70
2019-04-28T15:10:08.647Z,15.90
2019-04-28T15:15:10.040Z,15.20
2019-04-28T15:20:11.386Z,14.70
2019-04-28T15:25:12.702Z,14.40
2019-04-28T15:30:14.064Z,14.10
2019-04-28T15:35:15.676Z,14.50
2019-04-28T15:40:17.037Z,14.40
2019-04-28T15:45:18.335Z,14.20
2019-04-28T15:50:19.620Z,14.20
2019-04-28T15:55:20.983Z,14.20
2019-04-28T16:00:22.360Z,14.30
2019-04-28T16:05:23.969Z,14.50
2019-04-28T16:10:25.355Z,14.60
2019-04-28T16:15:26.649Z,14.70
2019-04-28T16:20:29.753Z,14.70
2019-04-28T16:25:31.264Z,14.70
2019-04-28T16:30:32.852Z,14.60
2019-04-28T16:35:34.179Z,15.10
2019-04-28T16:40:35.510Z,15.70
2019-04-28T16:45:36.821Z,18.70
2019-04-28T16:50:38.194Z,20.10
2019-04-28T16:55:39.571Z,20.20
2019-04-28T17:00:40.988Z,18.50
2019-04-28T17:05:42.272Z,17.50
2019-04-28T17:10:43.659Z,16.60
2019-04-28T17:15:45.031Z,15.90
2019-04-28T17:20:46.413Z,15.60
2019-04-28T17:25:47.687Z,16.00
2019-04-28T17:30:48.987Z,17.20
2019-04-28T17:35:50.282Z,17.70
2019-04-28T17:40:51.599Z,17.50
2019-04-28T17:45:52.972Z,17.00
2019-04-28T17:50:54.538Z,16.30
2019-04-28T17:55:55.857Z,15.70
2019-04-28T18:00:57.189Z,15.30
2019-04-28T18:05:58.509Z,14.90
2019-04-28T18:10:59.822Z,14.60
2019-04-28T18:16:01.142Z,14.30
2019-04-28T18:21:02.433Z,14.00
2019-04-28T18:26:03.731Z,13.80
2019-04-28T18:31:05.019Z,13.60
2019-04-28T18:36:06.766Z,13.50
2019-04-28T18:41:08.192Z,13.40
2019-04-28T18:46:09.478Z,13.20
2019-04-28T18:51:10.793Z,13.00
2019-04-28T18:56:12.103Z,13.00
2019-04-28T19:01:13.472Z,12.80
2019-04-28T19:06:14.877Z,12.70
2019-04-28T19:11:16.280Z,12.50
2019-04-28T19:16:17.579Z,12.40
2019-04-28T19:21:18.886Z,12.40
2019-04-28T19:26:20.206Z,12.30
2019-04-28T19:31:21.526Z,12.30
2019-04-28T19:36:22.917Z,12.40
2019-04-28T19:41:24.248Z,12.30
2019-04-28T19:46:25.568Z,12.20
2019-04-28T19:51:32.157Z,12.30
2019-04-28T19:56:29.876Z,12.40
2019-04-28T20:01:31.183Z,12.40
2019-04-28T20:06:32.512Z,12.40
2019-04-28T20:11:33.819Z,12.30
2019-04-28T20:16:35.195Z,12.30
2019-04-28T20:21:36.923Z,12.20
2019-04-28T20:26:38.284Z,12.00
2019-04-28T20:31:39.603Z,11.80
2019-04-28T20:36:40.907Z,11.70
2019-04-28T20:41:42.225Z,11.60
2019-04-28T20:46:43.595Z,11.50
2019-04-28T20:51:44.965Z,11.40
2019-04-28T20:56:46.251Z,11.30
2019-04-28T21:01:47.915Z,11.10
2019-04-28T21:06:49.297Z,10.90
2019-04-28T21:11:50.679Z,11.00
2019-04-28T21:16:52.035Z,10.80
2019-04-28T21:21:53.329Z,10.80
2019-04-28T21:26:54.557Z,10.70
2019-04-28T21:31:56.204Z,10.60
2019-04-28T21:36:57.495Z,10.50
2019-04-28T21:41:58.710Z,10.50
2019-04-28T21:47:00.016Z,10.40
2019-04-28T21:52:01.382Z,10.40
2019-04-28T21:57:02.691Z,10.20
2019-04-28T22:02:04.023Z,10.10
2019-04-28T22:07:05.335Z,10.10
2019-04-28T22:12:06.697Z,10.00
2019-04-28T22:17:07.914Z,9.90
2019-04-28T22:22:09.197Z,10.00
2019-04-28T22:27:10.539Z,9.90
2019-04-28T22:32:11.856Z,9.90
2019-04-28T22:37:13.066Z,9.90
2019-04-28T22:42:14.360Z,9.70
2019-04-28T22:47:15.980Z,9.60
2019-04-28T22:52:17.272Z,9.60
2019-04-28T22:57:18.654Z,9.50
2019-04-28T23:02:20.034Z,9.50
2019-04-28T23:07:21.317Z,9.50
2019-04-28T23:12:22.529Z,9.50
2019-04-28T23:17:23.809Z,9.30
2019-04-28T23:22:25.104Z,9.30
2019-04-28T23:27:26.407Z,9.20
2019-04-28T23:32:27.694Z,9.20
2019-04-28T23:37:28.896Z,9.10
2019-04-28T23:42:30.220Z,9.00
2019-04-28T23:47:31.558Z,9.00
2019-04-28T23:52:33.320Z,8.90
2019-04-28T23:57:34.618Z,8.90
